sensor_id;sensor_type;location;lat;lon;timestamp;temperature;humidity
2022;DHT22;1015;49.756;6.994;2023-02-21T00:02:09;1.60;99.90
2022;DHT22;1015;49.756;6.994;2023-02-21T00:04:53;1.40;99.90
2022;DHT22;1015;49.756;6.994;2023-02-21T00:07:37;1.40;99.90
2022;DHT22;1015;49.756;6.994;2023-02-21T00:10:21;1.50;99.90
2022;DHT22;1015;49.756;6.994;2023-02-21T00:13:08;1.20;99.90
2022;DHT22;1015;49.756;6.994;2023-02-21T00:15:52;1.80;99.90
2022;DHT22;1015;49.756;6.994;2023-02-21T00:18:37;1.90;99.90
2022;DHT22;1015;49.756;6.994;2023-02-21T00:21:22;2.10;99.90
2022;DHT22;1015;49.756;6.994;2023-02-21T00:24:07;2.20;99.90
2022;DHT22;1015;49.756;6.994;2023-02-21T00:26:51;2.30;99.90
2022;DHT22;1015;49.756;6.994;2023-02-21T00:29:37;2.40;99.90
2022;DHT22;1015;49.756;6.994;2023-02-21T00:32:21;2.50;99.90
2022;DHT22;1015;49.756;6.994;2023-02-21T00:35:06;2.50;99.90
2022;DHT22;1015;49.756;6.994;2023-02-21T00:37:51;2.50;99.90
2022;DHT22;1015;49.756;6.994;2023-02-21T00:40:35;2.40;99.90
2022;DHT22;1015;49.756;6.994;2023-02-21T00:43:26;2.40;99.90
2022;DHT22;1015;49.756;6.994;2023-02-21T00:46:12;2.40;99.90
2022;DHT22;1015;49.756;6.994;2023-02-21T00:48:56;2.30;99.90
2022;DHT22;1015;49.756;6.994;2023-02-21T00:51:40;2.40;99.90
2022;DHT22;1015;49.756;6.994;2023-02-21T00:54:25;2.40;99.90
2022;DHT22;1015;49.756;6.994;2023-02-21T00:57:09;2.30;99.90
2022;DHT22;1015;49.756;6.994;2023-02-21T00:59:53;2.20;99.90
2022;DHT22;1015;49.756;6.994;2023-02-21T01:02:39;2.30;99.90
2022;DHT22;1015;49.756;6.994;2023-02-21T01:05:23;2.20;99.90
2022;DHT22;1015;49.756;6.994;2023-02-21T01:08:07;2.30;99.90
2022;DHT22;1015;49.756;6.994;2023-02-21T01:10:51;2.20;99.90
2022;DHT22;1015;49.756;6.994;2023-02-21T01:13:35;2.50;99.90
2022;DHT22;1015;49.756;6.994;2023-02-21T01:16:20;2.50;99.90
2022;DHT22;1015;49.756;6.994;2023-02-21T01:19:05;2.40;99.90
2022;DHT22;1015;49.756;6.994;2023-02-21T01:21:50;2.50;99.90
2022;DHT22;1015;49.756;6.994;2023-02-21T01:24:34;2.70;99.90
2022;DHT22;1015;49.756;6.994;2023-02-21T01:27:18;2.60;99.90
2022;DHT22;1015;49.756;6.994;2023-02-21T02:00:28;2.00;99.90
2022;DHT22;1015;49.756;6.994;2023-02-21T02:03:16;1.30;99.90
2022;DHT22;1015;49.756;6.994;2023-02-21T02:06:04;1.00;99.90
2022;DHT22;1015;49.756;6.994;2023-02-21T02:08:49;0.90;99.90
2022;DHT22;1015;49.756;6.994;2023-02-21T02:11:49;0.80;99.90
2022;DHT22;1015;49.756;6.994;2023-02-21T02:14:53;1.00;99.90
2022;DHT22;1015;49.756;6.994;2023-02-21T02:17:33;1.40;99.90
2022;DHT22;1015;49.756;6.994;2023-02-21T02:20:26;1.50;99.90
2022;DHT22;1015;49.756;6.994;2023-02-21T02:23:18;1.40;99.90
2022;DHT22;1015;49.756;6.994;2023-02-21T02:26:11;1.20;99.90
2022;DHT22;1015;49.756;6.994;2023-02-21T02:28:53;1.20;99.90
2022;DHT22;1015;49.756;6.994;2023-02-21T02:31:39;1.10;99.90
2022;DHT22;1015;49.756;6.994;2023-02-21T02:37:22;1.00;99.90
2022;DHT22;1015;49.756;6.994;2023-02-21T02:39:56;0.70;99.90
2022;DHT22;1015;49.756;6.994;2023-02-21T02:42:36;0.50;99.90
2022;DHT22;1015;49.756;6.994;2023-02-21T02:45:09;1.20;99.90
2022;DHT22;1015;49.756;6.994;2023-02-21T02:47:40;1.00;99.90
2022;DHT22;1015;49.756;6.994;2023-02-21T02:50:09;0.90;99.90
2022;DHT22;1015;49.756;6.994;2023-02-21T02:52:38;1.00;99.90
2022;DHT22;1015;49.756;6.994;2023-02-21T02:55:25;0.90;99.90
2022;DHT22;1015;49.756;6.994;2023-02-21T02:57:53;1.00;99.90
2022;DHT22;1015;49.756;6.994;2023-02-21T03:00:20;0.90;99.90
2022;DHT22;1015;49.756;6.994;2023-02-21T03:03:02;1.00;99.90
2022;DHT22;1015;49.756;6.994;2023-02-21T03:05:49;0.60;99.90
2022;DHT22;1015;49.756;6.994;2023-02-21T03:08:25;0.60;99.90
2022;DHT22;1015;49.756;6.994;2023-02-21T03:11:00;0.70;99.90
2022;DHT22;1015;49.756;6.994;2023-02-21T03:13:33;0.80;99.90
2022;DHT22;1015;49.756;6.994;2023-02-21T03:16:08;0.70;99.90
2022;DHT22;1015;49.756;6.994;2023-02-21T03:18:42;0.70;99.90
2022;DHT22;1015;49.756;6.994;2023-02-21T03:21:14;0.80;99.90
2022;DHT22;1015;49.756;6.994;2023-02-21T03:23:44;0.90;99.90
2022;DHT22;1015;49.756;6.994;2023-02-21T03:26:14;0.70;99.90
2022;DHT22;1015;49.756;6.994;2023-02-21T03:28:43;1.00;99.90
2022;DHT22;1015;49.756;6.994;2023-02-21T03:31:12;1.00;99.90
2022;DHT22;1015;49.756;6.994;2023-02-21T03:33:40;0.90;99.90
2022;DHT22;1015;49.756;6.994;2023-02-21T03:36:08;0.80;99.90
2022;DHT22;1015;49.756;6.994;2023-02-21T03:38:36;0.70;99.90
2022;DHT22;1015;49.756;6.994;2023-02-21T03:41:04;0.60;99.90
2022;DHT22;1015;49.756;6.994;2023-02-21T03:43:32;0.70;99.90
2022;DHT22;1015;49.756;6.994;2023-02-21T03:45:59;0.50;99.90
2022;DHT22;1015;49.756;6.994;2023-02-21T03:48:25;0.60;99.90
2022;DHT22;1015;49.756;6.994;2023-02-21T03:50:52;0.60;99.90
2022;DHT22;1015;49.756;6.994;2023-02-21T03:53:19;0.80;99.90
2022;DHT22;1015;49.756;6.994;2023-02-21T03:55:47;0.90;99.90
2022;DHT22;1015;49.756;6.994;2023-02-21T03:58:14;0.80;99.90
2022;DHT22;1015;49.756;6.994;2023-02-21T04:00:41;0.70;99.90
2022;DHT22;1015;49.756;6.994;2023-02-21T04:03:08;0.90;99.90
2022;DHT22;1015;49.756;6.994;2023-02-21T04:05:35;0.80;99.90
2022;DHT22;1015;49.756;6.994;2023-02-21T04:08:02;1.00;99.90
2022;DHT22;1015;49.756;6.994;2023-02-21T04:10:29;0.40;99.90
2022;DHT22;1015;49.756;6.994;2023-02-21T04:12:57;0.40;99.90
2022;DHT22;1015;49.756;6.994;2023-02-21T04:15:24;0.60;99.90
2022;DHT22;1015;49.756;6.994;2023-02-21T04:17:51;0.80;99.90
2022;DHT22;1015;49.756;6.994;2023-02-21T04:20:18;0.90;99.90
2022;DHT22;1015;49.756;6.994;2023-02-21T04:22:45;0.50;99.90
2022;DHT22;1015;49.756;6.994;2023-02-21T04:25:12;0.50;99.90
2022;DHT22;1015;49.756;6.994;2023-02-21T04:27:39;0.40;99.90
2022;DHT22;1015;49.756;6.994;2023-02-21T04:30:09;0.40;99.90
2022;DHT22;1015;49.756;6.994;2023-02-21T04:32:36;0.20;99.90
2022;DHT22;1015;49.756;6.994;2023-02-21T04:35:03;0.20;99.90
2022;DHT22;1015;49.756;6.994;2023-02-21T04:37:30;0.20;99.90
2022;DHT22;1015;49.756;6.994;2023-02-21T04:39:57;0.20;99.90
2022;DHT22;1015;49.756;6.994;2023-02-21T04:42:24;0.30;99.90
2022;DHT22;1015;49.756;6.994;2023-02-21T04:44:51;0.30;99.90
2022;DHT22;1015;49.756;6.994;2023-02-21T04:47:19;0.10;99.90
2022;DHT22;1015;49.756;6.994;2023-02-21T04:49:46;0.20;99.90
2022;DHT22;1015;49.756;6.994;2023-02-21T04:52:16;0.30;99.90
2022;DHT22;1015;49.756;6.994;2023-02-21T04:54:45;0.00;99.90
2022;DHT22;1015;49.756;6.994;2023-02-21T04:57:12;0.00;99.90
2022;DHT22;1015;49.756;6.994;2023-02-21T04:59:39;0.10;99.90
2022;DHT22;1015;49.756;6.994;2023-02-21T05:02:07;-0.10;99.90
2022;DHT22;1015;49.756;6.994;2023-02-21T05:04:35;-0.30;99.90
2022;DHT22;1015;49.756;6.994;2023-02-21T05:07:03;-0.30;99.90
2022;DHT22;1015;49.756;6.994;2023-02-21T05:09:30;-0.20;99.90
2022;DHT22;1015;49.756;6.994;2023-02-21T05:11:57;-0.10;99.90
2022;DHT22;1015;49.756;6.994;2023-02-21T05:14:24;0.00;99.90
2022;DHT22;1015;49.756;6.994;2023-02-21T05:16:51;-0.20;99.90
2022;DHT22;1015;49.756;6.994;2023-02-21T05:19:18;-0.30;99.90
2022;DHT22;1015;49.756;6.994;2023-02-21T05:21:53;-0.10;99.90
2022;DHT22;1015;49.756;6.994;2023-02-21T05:24:21;0.00;99.90
2022;DHT22;1015;49.756;6.994;2023-02-21T05:26:55;0.00;99.90
2022;DHT22;1015;49.756;6.994;2023-02-21T05:29:22;0.20;99.90
2022;DHT22;1015;49.756;6.994;2023-02-21T05:31:49;0.20;99.90
2022;DHT22;1015;49.756;6.994;2023-02-21T05:34:16;0.20;99.90
2022;DHT22;1015;49.756;6.994;2023-02-21T05:36:44;0.10;99.90
2022;DHT22;1015;49.756;6.994;2023-02-21T05:39:12;0.00;99.90
2022;DHT22;1015;49.756;6.994;2023-02-21T05:41:45;0.00;99.90
2022;DHT22;1015;49.756;6.994;2023-02-21T05:44:12;-0.10;99.90
2022;DHT22;1015;49.756;6.994;2023-02-21T05:46:39;-0.30;99.90
2022;DHT22;1015;49.756;6.994;2023-02-21T05:49:06;-0.30;99.90
2022;DHT22;1015;49.756;6.994;2023-02-21T05:51:35;-0.20;99.90
2022;DHT22;1015;49.756;6.994;2023-02-21T05:54:02;-0.30;99.90
2022;DHT22;1015;49.756;6.994;2023-02-21T05:56:36;-0.40;99.90
2022;DHT22;1015;49.756;6.994;2023-02-21T05:59:03;-0.50;99.90
2022;DHT22;1015;49.756;6.994;2023-02-21T06:01:30;0.00;99.90
2022;DHT22;1015;49.756;6.994;2023-02-21T06:03:57;-0.30;99.90
2022;DHT22;1015;49.756;6.994;2023-02-21T06:06:24;-0.20;99.90
2022;DHT22;1015;49.756;6.994;2023-02-21T06:08:51;-0.20;99.90
2022;DHT22;1015;49.756;6.994;2023-02-21T06:11:22;-0.10;99.90
2022;DHT22;1015;49.756;6.994;2023-02-21T06:13:51;-0.20;99.90
2022;DHT22;1015;49.756;6.994;2023-02-21T06:16:18;-0.30;99.90
2022;DHT22;1015;49.756;6.994;2023-02-21T06:18:49;0.30;99.90
2022;DHT22;1015;49.756;6.994;2023-02-21T06:21:17;1.30;99.90
2022;DHT22;1015;49.756;6.994;2023-02-21T06:23:45;0.90;99.90
2022;DHT22;1015;49.756;6.994;2023-02-21T06:26:13;0.60;99.90
2022;DHT22;1015;49.756;6.994;2023-02-21T06:28:40;0.40;99.90
2022;DHT22;1015;49.756;6.994;2023-02-21T06:31:09;0.40;99.90
2022;DHT22;1015;49.756;6.994;2023-02-21T06:33:36;0.30;99.90
2022;DHT22;1015;49.756;6.994;2023-02-21T06:36:04;0.50;99.90
2022;DHT22;1015;49.756;6.994;2023-02-21T06:38:31;0.50;99.90
2022;DHT22;1015;49.756;6.994;2023-02-21T06:40:58;0.20;99.90
2022;DHT22;1015;49.756;6.994;2023-02-21T06:43:26;0.10;99.90
2022;DHT22;1015;49.756;6.994;2023-02-21T06:45:52;0.20;99.90
2022;DHT22;1015;49.756;6.994;2023-02-21T06:48:21;0.20;99.90
2022;DHT22;1015;49.756;6.994;2023-02-21T06:50:48;0.20;99.90
2022;DHT22;1015;49.756;6.994;2023-02-21T06:53:14;0.20;99.90
2022;DHT22;1015;49.756;6.994;2023-02-21T06:55:41;0.20;99.90
2022;DHT22;1015;49.756;6.994;2023-02-21T06:58:09;0.10;99.90
2022;DHT22;1015;49.756;6.994;2023-02-21T07:00:36;0.30;99.90
2022;DHT22;1015;49.756;6.994;2023-02-21T07:03:03;0.60;99.90
2022;DHT22;1015;49.756;6.994;2023-02-21T07:05:31;0.70;99.90
2022;DHT22;1015;49.756;6.994;2023-02-21T07:07:59;0.60;99.90
2022;DHT22;1015;49.756;6.994;2023-02-21T07:10:27;0.70;99.90
2022;DHT22;1015;49.756;6.994;2023-02-21T07:12:54;0.70;99.90
2022;DHT22;1015;49.756;6.994;2023-02-21T07:15:21;1.00;99.90
2022;DHT22;1015;49.756;6.994;2023-02-21T07:17:48;1.30;99.90
2022;DHT22;1015;49.756;6.994;2023-02-21T07:20:16;1.50;99.90
2022;DHT22;1015;49.756;6.994;2023-02-21T07:22:44;1.50;99.90
2022;DHT22;1015;49.756;6.994;2023-02-21T07:25:14;1.50;99.90
2022;DHT22;1015;49.756;6.994;2023-02-21T07:27:41;1.50;99.90
2022;DHT22;1015;49.756;6.994;2023-02-21T07:30:09;1.60;99.90
2022;DHT22;1015;49.756;6.994;2023-02-21T07:32:36;1.70;99.90
2022;DHT22;1015;49.756;6.994;2023-02-21T07:35:03;1.70;99.90
2022;DHT22;1015;49.756;6.994;2023-02-21T07:37:30;1.80;99.90
2022;DHT22;1015;49.756;6.994;2023-02-21T07:39:59;1.90;99.90
2022;DHT22;1015;49.756;6.994;2023-02-21T07:42:26;2.00;99.90
2022;DHT22;1015;49.756;6.994;2023-02-21T07:44:54;2.10;99.90
2022;DHT22;1015;49.756;6.994;2023-02-21T07:47:22;2.20;99.90
2022;DHT22;1015;49.756;6.994;2023-02-21T07:49:49;2.30;99.90
2022;DHT22;1015;49.756;6.994;2023-02-21T07:52:16;2.50;99.90
2022;DHT22;1015;49.756;6.994;2023-02-21T07:54:43;2.70;99.90
2022;DHT22;1015;49.756;6.994;2023-02-21T07:57:12;2.90;99.90
2022;DHT22;1015;49.756;6.994;2023-02-21T07:59:41;3.00;99.90
2022;DHT22;1015;49.756;6.994;2023-02-21T08:02:09;3.10;99.90
2022;DHT22;1015;49.756;6.994;2023-02-21T08:04:36;3.20;99.90
2022;DHT22;1015;49.756;6.994;2023-02-21T08:07:03;3.50;99.90
2022;DHT22;1015;49.756;6.994;2023-02-21T08:11:58;4.00;99.90
2022;DHT22;1015;49.756;6.994;2023-02-21T08:14:27;4.10;99.90
2022;DHT22;1015;49.756;6.994;2023-02-21T08:16:54;4.40;99.90
2022;DHT22;1015;49.756;6.994;2023-02-21T08:19:21;4.50;99.90
2022;DHT22;1015;49.756;6.994;2023-02-21T08:21:48;4.60;99.90
2022;DHT22;1015;49.756;6.994;2023-02-21T08:24:16;4.70;99.90
2022;DHT22;1015;49.756;6.994;2023-02-21T08:26:43;4.90;99.90
2022;DHT22;1015;49.756;6.994;2023-02-21T08:29:11;5.00;99.90
2022;DHT22;1015;49.756;6.994;2023-02-21T08:31:41;5.00;99.90
2022;DHT22;1015;49.756;6.994;2023-02-21T08:34:09;5.10;99.90
2022;DHT22;1015;49.756;6.994;2023-02-21T08:36:39;5.20;99.90
2022;DHT22;1015;49.756;6.994;2023-02-21T08:39:07;5.40;99.90
2022;DHT22;1015;49.756;6.994;2023-02-21T08:41:35;5.50;99.90
2022;DHT22;1015;49.756;6.994;2023-02-21T08:44:03;5.60;99.90
2022;DHT22;1015;49.756;6.994;2023-02-21T08:46:30;5.70;99.90
2022;DHT22;1015;49.756;6.994;2023-02-21T08:48:58;5.80;99.90
2022;DHT22;1015;49.756;6.994;2023-02-21T08:51:25;5.80;99.90
2022;DHT22;1015;49.756;6.994;2023-02-21T08:53:53;5.90;99.90
2022;DHT22;1015;49.756;6.994;2023-02-21T08:56:20;6.00;99.90
2022;DHT22;1015;49.756;6.994;2023-02-21T08:58:47;6.20;99.90
2022;DHT22;1015;49.756;6.994;2023-02-21T09:01:14;6.30;99.90
2022;DHT22;1015;49.756;6.994;2023-02-21T09:03:41;6.50;99.90
2022;DHT22;1015;49.756;6.994;2023-02-21T09:06:10;6.60;99.90
2022;DHT22;1015;49.756;6.994;2023-02-21T09:08:37;6.80;99.90
2022;DHT22;1015;49.756;6.994;2023-02-21T09:11:05;6.90;99.90
2022;DHT22;1015;49.756;6.994;2023-02-21T09:13:33;7.00;99.90
2022;DHT22;1015;49.756;6.994;2023-02-21T09:16:00;7.10;99.90
2022;DHT22;1015;49.756;6.994;2023-02-21T09:18:28;7.20;99.90
2022;DHT22;1015;49.756;6.994;2023-02-21T09:20:56;7.30;99.90
2022;DHT22;1015;49.756;6.994;2023-02-21T09:23:27;7.30;99.90
2022;DHT22;1015;49.756;6.994;2023-02-21T09:25:54;7.50;99.90
2022;DHT22;1015;49.756;6.994;2023-02-21T09:28:21;7.60;99.90
2022;DHT22;1015;49.756;6.994;2023-02-21T09:30:49;7.70;99.90
2022;DHT22;1015;49.756;6.994;2023-02-21T09:33:16;7.70;99.90
2022;DHT22;1015;49.756;6.994;2023-02-21T09:35:44;7.90;99.90
2022;DHT22;1015;49.756;6.994;2023-02-21T09:38:11;8.10;99.90
2022;DHT22;1015;49.756;6.994;2023-02-21T09:40:42;8.10;99.90
2022;DHT22;1015;49.756;6.994;2023-02-21T09:43:15;8.20;99.90
2022;DHT22;1015;49.756;6.994;2023-02-21T09:45:45;8.40;99.90
2022;DHT22;1015;49.756;6.994;2023-02-21T09:48:16;8.60;99.90
2022;DHT22;1015;49.756;6.994;2023-02-21T09:50:48;8.80;99.90
2022;DHT22;1015;49.756;6.994;2023-02-21T09:53:19;8.80;99.90
2022;DHT22;1015;49.756;6.994;2023-02-21T09:55:49;8.90;99.90
2022;DHT22;1015;49.756;6.994;2023-02-21T09:58:20;8.90;99.90
2022;DHT22;1015;49.756;6.994;2023-02-21T10:00:48;9.10;99.90
2022;DHT22;1015;49.756;6.994;2023-02-21T10:03:37;9.20;99.90
2022;DHT22;1015;49.756;6.994;2023-02-21T10:06:11;9.40;99.90
2022;DHT22;1015;49.756;6.994;2023-02-21T10:08:51;9.40;99.90
2022;DHT22;1015;49.756;6.994;2023-02-21T10:11:28;9.60;99.90
2022;DHT22;1015;49.756;6.994;2023-02-21T10:14:05;9.60;99.90
2022;DHT22;1015;49.756;6.994;2023-02-21T10:16:38;9.60;99.90
2022;DHT22;1015;49.756;6.994;2023-02-21T10:19:15;9.70;99.90
2022;DHT22;1015;49.756;6.994;2023-02-21T10:21:46;10.00;99.90
2022;DHT22;1015;49.756;6.994;2023-02-21T10:24:15;10.10;99.90
2022;DHT22;1015;49.756;6.994;2023-02-21T10:26:48;10.20;99.90
2022;DHT22;1015;49.756;6.994;2023-02-21T10:29:21;10.20;99.90
2022;DHT22;1015;49.756;6.994;2023-02-21T10:31:53;10.20;99.90
2022;DHT22;1015;49.756;6.994;2023-02-21T10:34:23;10.40;99.90
2022;DHT22;1015;49.756;6.994;2023-02-21T10:36:52;10.40;99.90
2022;DHT22;1015;49.756;6.994;2023-02-21T10:39:24;10.60;99.90
2022;DHT22;1015;49.756;6.994;2023-02-21T10:42:02;10.70;99.90
2022;DHT22;1015;49.756;6.994;2023-02-21T10:44:33;10.80;99.90
2022;DHT22;1015;49.756;6.994;2023-02-21T10:47:06;10.90;99.90
2022;DHT22;1015;49.756;6.994;2023-02-21T10:49:39;11.00;99.90
2022;DHT22;1015;49.756;6.994;2023-02-21T10:52:12;11.30;99.90
2022;DHT22;1015;49.756;6.994;2023-02-21T10:54:59;11.20;99.90
2022;DHT22;1015;49.756;6.994;2023-02-21T10:57:29;11.40;99.90
2022;DHT22;1015;49.756;6.994;2023-02-21T10:59:57;11.70;99.90
2022;DHT22;1015;49.756;6.994;2023-02-21T11:02:33;11.90;99.90
2022;DHT22;1015;49.756;6.994;2023-02-21T11:05:13;11.80;99.90
2022;DHT22;1015;49.756;6.994;2023-02-21T11:07:53;11.90;99.90
2022;DHT22;1015;49.756;6.994;2023-02-21T11:10:30;11.90;99.90
2022;DHT22;1015;49.756;6.994;2023-02-21T11:13:12;12.10;99.90
2022;DHT22;1015;49.756;6.994;2023-02-21T11:15:40;12.20;99.90
2022;DHT22;1015;49.756;6.994;2023-02-21T11:18:16;12.40;99.90
2022;DHT22;1015;49.756;6.994;2023-02-21T11:20:45;12.50;99.90
2022;DHT22;1015;49.756;6.994;2023-02-21T11:23:22;12.40;99.90
2022;DHT22;1015;49.756;6.994;2023-02-21T11:25:59;12.60;99.90
2022;DHT22;1015;49.756;6.994;2023-02-21T11:28:36;12.60;99.90
2022;DHT22;1015;49.756;6.994;2023-02-21T11:31:14;12.60;99.90
2022;DHT22;1015;49.756;6.994;2023-02-21T11:33:47;12.60;99.90
2022;DHT22;1015;49.756;6.994;2023-02-21T11:36:18;13.00;99.90
2022;DHT22;1015;49.756;6.994;2023-02-21T11:39:01;12.60;99.90
2022;DHT22;1015;49.756;6.994;2023-02-21T11:41:34;12.40;99.90
2022;DHT22;1015;49.756;6.994;2023-02-21T11:44:22;12.60;99.90
2022;DHT22;1015;49.756;6.994;2023-02-21T11:46:52;12.50;99.90
2022;DHT22;1015;49.756;6.994;2023-02-21T11:49:25;12.50;99.90
2022;DHT22;1015;49.756;6.994;2023-02-21T11:52:00;12.40;99.90
2022;DHT22;1015;49.756;6.994;2023-02-21T11:54:29;12.90;99.90
2022;DHT22;1015;49.756;6.994;2023-02-21T11:57:02;12.80;99.90
2022;DHT22;1015;49.756;6.994;2023-02-21T11:59:41;12.90;99.90
2022;DHT22;1015;49.756;6.994;2023-02-21T12:05:29;13.00;99.90
2022;DHT22;1015;49.756;6.994;2023-02-21T12:08:11;13.10;99.90
2022;DHT22;1015;49.756;6.994;2023-02-21T12:10:45;12.80;99.90
2022;DHT22;1015;49.756;6.994;2023-02-21T12:13:28;13.10;99.90
2022;DHT22;1015;49.756;6.994;2023-02-21T12:16:01;13.30;99.90
2022;DHT22;1015;49.756;6.994;2023-02-21T12:18:46;13.30;99.90
2022;DHT22;1015;49.756;6.994;2023-02-21T12:21:31;13.20;99.90
2022;DHT22;1015;49.756;6.994;2023-02-21T12:24:09;13.20;99.90
2022;DHT22;1015;49.756;6.994;2023-02-21T12:26:48;13.10;99.90
2022;DHT22;1015;49.756;6.994;2023-02-21T12:29:27;13.20;99.90
2022;DHT22;1015;49.756;6.994;2023-02-21T12:32:18;13.30;99.90
2022;DHT22;1015;49.756;6.994;2023-02-21T12:37:45;13.30;99.90
2022;DHT22;1015;49.756;6.994;2023-02-21T12:40:23;13.20;99.90
2022;DHT22;1015;49.756;6.994;2023-02-21T12:43:15;13.20;99.90
2022;DHT22;1015;49.756;6.994;2023-02-21T12:45:53;13.20;99.90
2022;DHT22;1015;49.756;6.994;2023-02-21T12:48:29;13.60;99.90
2022;DHT22;1015;49.756;6.994;2023-02-21T12:51:00;13.40;99.90
2022;DHT22;1015;49.756;6.994;2023-02-21T12:53:34;13.50;99.90
2022;DHT22;1015;49.756;6.994;2023-02-21T12:56:05;13.60;99.90
2022;DHT22;1015;49.756;6.994;2023-02-21T12:58:35;13.50;99.90
2022;DHT22;1015;49.756;6.994;2023-02-21T13:01:06;13.70;99.90
2022;DHT22;1015;49.756;6.994;2023-02-21T13:03:50;13.50;99.90
2022;DHT22;1015;49.756;6.994;2023-02-21T13:06:24;13.40;99.90
2022;DHT22;1015;49.756;6.994;2023-02-21T13:09:01;13.40;99.90
2022;DHT22;1015;49.756;6.994;2023-02-21T13:11:35;13.40;99.90
2022;DHT22;1015;49.756;6.994;2023-02-21T13:14:08;13.40;99.90
2022;DHT22;1015;49.756;6.994;2023-02-21T13:16:36;13.60;99.90
2022;DHT22;1015;49.756;6.994;2023-02-21T13:19:06;13.40;99.90
2022;DHT22;1015;49.756;6.994;2023-02-21T13:21:53;13.60;99.90
2022;DHT22;1015;49.756;6.994;2023-02-21T13:24:50;13.40;99.90
2022;DHT22;1015;49.756;6.994;2023-02-21T13:30:24;13.50;99.90
2022;DHT22;1015;49.756;6.994;2023-02-21T13:32:55;13.80;99.90
2022;DHT22;1015;49.756;6.994;2023-02-21T13:35:30;13.60;99.90
2022;DHT22;1015;49.756;6.994;2023-02-21T13:37:58;13.60;99.90
2022;DHT22;1015;49.756;6.994;2023-02-21T13:40:34;13.40;99.90
2022;DHT22;1015;49.756;6.994;2023-02-21T13:43:05;13.60;99.90
2022;DHT22;1015;49.756;6.994;2023-02-21T13:45:32;13.50;99.90
2022;DHT22;1015;49.756;6.994;2023-02-21T13:50:57;13.70;99.90
2022;DHT22;1015;49.756;6.994;2023-02-21T13:53:27;13.70;99.90
2022;DHT22;1015;49.756;6.994;2023-02-21T13:56:40;13.80;99.90
2022;DHT22;1015;49.756;6.994;2023-02-21T13:59:30;13.60;99.90
2022;DHT22;1015;49.756;6.994;2023-02-21T14:02:19;13.40;99.90
2022;DHT22;1015;49.756;6.994;2023-02-21T14:05:04;13.60;99.90
2022;DHT22;1015;49.756;6.994;2023-02-21T14:07:56;13.60;99.90
2022;DHT22;1015;49.756;6.994;2023-02-21T14:10:40;13.80;99.90
2022;DHT22;1015;49.756;6.994;2023-02-21T14:13:19;13.60;99.90
2022;DHT22;1015;49.756;6.994;2023-02-21T14:15:50;13.60;99.90
2022;DHT22;1015;49.756;6.994;2023-02-21T14:18:25;13.40;99.90
2022;DHT22;1015;49.756;6.994;2023-02-21T14:20:55;13.40;99.90
2022;DHT22;1015;49.756;6.994;2023-02-21T14:23:33;13.50;99.90
2022;DHT22;1015;49.756;6.994;2023-02-21T14:26:05;13.40;99.90
2022;DHT22;1015;49.756;6.994;2023-02-21T14:29:02;13.50;99.90
2022;DHT22;1015;49.756;6.994;2023-02-21T14:31:49;13.50;99.90
2022;DHT22;1015;49.756;6.994;2023-02-21T14:34:21;13.40;99.90
2022;DHT22;1015;49.756;6.994;2023-02-21T14:36:50;13.30;99.90
2022;DHT22;1015;49.756;6.994;2023-02-21T14:39:21;13.30;99.90
2022;DHT22;1015;49.756;6.994;2023-02-21T14:42:03;13.40;99.90
2022;DHT22;1015;49.756;6.994;2023-02-21T14:44:38;13.40;99.90
2022;DHT22;1015;49.756;6.994;2023-02-21T14:47:32;13.50;99.90
2022;DHT22;1015;49.756;6.994;2023-02-21T14:50:19;13.50;99.90
2022;DHT22;1015;49.756;6.994;2023-02-21T14:53:30;13.30;99.90
2022;DHT22;1015;49.756;6.994;2023-02-21T14:56:18;13.40;99.90
2022;DHT22;1015;49.756;6.994;2023-02-21T14:59:13;13.30;99.90
2022;DHT22;1015;49.756;6.994;2023-02-21T15:01:54;13.30;99.90
2022;DHT22;1015;49.756;6.994;2023-02-21T15:04:30;13.30;99.90
2022;DHT22;1015;49.756;6.994;2023-02-21T15:07:02;13.30;99.90
2022;DHT22;1015;49.756;6.994;2023-02-21T15:09:34;13.20;99.90
2022;DHT22;1015;49.756;6.994;2023-02-21T15:12:03;13.20;99.90
2022;DHT22;1015;49.756;6.994;2023-02-21T15:14:34;13.00;99.90
2022;DHT22;1015;49.756;6.994;2023-02-21T15:17:11;13.10;99.90
2022;DHT22;1015;49.756;6.994;2023-02-21T15:19:38;13.10;99.90
2022;DHT22;1015;49.756;6.994;2023-02-21T15:22:18;13.10;99.90
2022;DHT22;1015;49.756;6.994;2023-02-21T15:25:11;12.90;99.90
2022;DHT22;1015;49.756;6.994;2023-02-21T15:27:59;12.90;99.90
2022;DHT22;1015;49.756;6.994;2023-02-21T15:30:30;12.80;99.90
2022;DHT22;1015;49.756;6.994;2023-02-21T15:33:03;12.80;99.90
2022;DHT22;1015;49.756;6.994;2023-02-21T15:35:34;12.70;99.90
2022;DHT22;1015;49.756;6.994;2023-02-21T15:38:06;12.50;99.90
2022;DHT22;1015;49.756;6.994;2023-02-21T15:40:36;12.40;99.90
2022;DHT22;1015;49.756;6.994;2023-02-21T15:43:05;12.30;99.90
2022;DHT22;1015;49.756;6.994;2023-02-21T15:45:41;12.20;99.90
2022;DHT22;1015;49.756;6.994;2023-02-21T15:48:10;11.80;99.90
2022;DHT22;1015;49.756;6.994;2023-02-21T15:50:39;11.50;99.90
2022;DHT22;1015;49.756;6.994;2023-02-21T15:53:16;11.20;99.90
2022;DHT22;1015;49.756;6.994;2023-02-21T15:55:45;11.20;99.90
2022;DHT22;1015;49.756;6.994;2023-02-21T15:58:17;11.10;99.90
2022;DHT22;1015;49.756;6.994;2023-02-21T16:00:45;11.00;99.90
2022;DHT22;1015;49.756;6.994;2023-02-21T16:03:33;10.70;99.90
2022;DHT22;1015;49.756;6.994;2023-02-21T16:06:14;10.30;99.90
2022;DHT22;1015;49.756;6.994;2023-02-21T16:08:56;10.00;99.90
2022;DHT22;1015;49.756;6.994;2023-02-21T16:11:37;9.70;99.90
2022;DHT22;1015;49.756;6.994;2023-02-21T16:14:16;9.30;99.90
2022;DHT22;1015;49.756;6.994;2023-02-21T16:16:44;9.30;99.90
2022;DHT22;1015;49.756;6.994;2023-02-21T16:19:11;8.90;99.90
2022;DHT22;1015;49.756;6.994;2023-02-21T16:21:38;8.60;99.90
2022;DHT22;1015;49.756;6.994;2023-02-21T16:24:27;8.10;99.90
2022;DHT22;1015;49.756;6.994;2023-02-21T16:27:05;7.90;99.90
2022;DHT22;1015;49.756;6.994;2023-02-21T16:29:35;7.70;99.90
2022;DHT22;1015;49.756;6.994;2023-02-21T16:32:02;7.30;99.90
2022;DHT22;1015;49.756;6.994;2023-02-21T16:34:30;7.20;99.90
2022;DHT22;1015;49.756;6.994;2023-02-21T16:37:03;7.10;99.90
2022;DHT22;1015;49.756;6.994;2023-02-21T16:39:31;7.30;99.90
2022;DHT22;1015;49.756;6.994;2023-02-21T16:41:58;7.30;99.90
2022;DHT22;1015;49.756;6.994;2023-02-21T16:44:25;7.30;99.90
2022;DHT22;1015;49.756;6.994;2023-02-21T16:46:53;7.20;99.90
2022;DHT22;1015;49.756;6.994;2023-02-21T16:49:20;6.80;99.90
2022;DHT22;1015;49.756;6.994;2023-02-21T16:51:48;6.40;99.90
2022;DHT22;1015;49.756;6.994;2023-02-21T16:54:15;6.40;99.90
2022;DHT22;1015;49.756;6.994;2023-02-21T16:56:45;6.30;99.90
2022;DHT22;1015;49.756;6.994;2023-02-21T16:59:14;6.40;99.90
2022;DHT22;1015;49.756;6.994;2023-02-21T17:01:42;6.30;99.90
2022;DHT22;1015;49.756;6.994;2023-02-21T17:04:17;6.40;99.90
2022;DHT22;1015;49.756;6.994;2023-02-21T17:06:46;6.90;99.90
2022;DHT22;1015;49.756;6.994;2023-02-21T17:09:19;6.70;99.90
2022;DHT22;1015;49.756;6.994;2023-02-21T17:11:46;6.50;99.90
2022;DHT22;1015;49.756;6.994;2023-02-21T17:14:13;6.30;99.90
2022;DHT22;1015;49.756;6.994;2023-02-21T17:16:41;6.20;99.90
2022;DHT22;1015;49.756;6.994;2023-02-21T17:19:11;6.00;99.90
2022;DHT22;1015;49.756;6.994;2023-02-21T17:21:39;5.80;99.90
2022;DHT22;1015;49.756;6.994;2023-02-21T17:24:07;5.70;99.90
2022;DHT22;1015;49.756;6.994;2023-02-21T17:26:34;5.70;99.90
2022;DHT22;1015;49.756;6.994;2023-02-21T17:29:01;5.30;99.90
2022;DHT22;1015;49.756;6.994;2023-02-21T17:31:28;5.20;99.90
2022;DHT22;1015;49.756;6.994;2023-02-21T17:33:55;5.30;99.90
2022;DHT22;1015;49.756;6.994;2023-02-21T17:36:24;5.20;99.90
2022;DHT22;1015;49.756;6.994;2023-02-21T17:38:53;5.20;99.90
2022;DHT22;1015;49.756;6.994;2023-02-21T17:41:20;5.00;99.90